Time;durP1;ratioP1;P1;durP2;ratioP2;P2;SDS_P1;SDS_P2;PMS_P1;PMS_P2;Temp;Humidity;BMP_temperature;BMP_pressure;BME280_temperature;BME280_humidity;BME280_pressure;Samples;Min_cycle;Max_cycle;Signal;HPM_P1;HPM_P2
2021/11/18 00:01:17;;;;;;;90.20;57.75;;;;;;;-0.26;81.99;101154.22;1427749;91;21479;-89
2021/11/18 00:03:46;;;;;;;99.97;58.50;;;;;;;-0.32;81.55;101152.70;1428058;91;21404;-90
2021/11/18 00:06:15;;;;;;;90.47;57.03;;;;;;;-0.39;81.68;101147.38;1427056;91;21620;-90
2021/11/18 00:08:44;;;;;;;99.77;57.60;;;;;;;-0.49;82.08;101154.69;1430339;91;22751;-90
2021/11/18 00:11:14;;;;;;;91.72;53.70;;;;;;;-0.57;82.54;101160.64;1421436;91;22381;-90
2021/11/18 00:13:47;;;;;;;93.80;58.98;;;;;;;-0.60;83.11;101161.22;1424745;91;21538;-91
2021/11/18 00:16:14;;;;;;;92.75;57.23;;;;;;;-0.67;83.88;101167.08;1434228;91;21582;-91
2021/11/18 00:18:42;;;;;;;97.95;61.98;;;;;;;-0.64;84.32;101162.22;1422429;91;21538;-90
2021/11/18 00:21:24;;;;;;;90.10;57.08;;;;;;;-0.59;84.50;101160.30;1423128;91;21650;-91
2021/11/18 00:23:53;;;;;;;;;;;;;;;-0.57;84.74;101165.84;1433460;91;22751;-91
2021/11/18 00:26:22;;;;;;;97.33;60.08;;;;;;;-0.56;84.62;101159.72;1426629;91;20417;-91
2021/11/18 00:28:50;;;;;;;100.90;61.33;;;;;;;-0.56;84.64;101164.08;1424698;91;21665;-91
2021/11/18 00:31:21;;;;;;;102.30;61.37;;;;;;;-0.49;84.83;101166.39;1425008;91;21361;-90
2021/11/18 00:33:50;;;;;;;95.75;58.58;;;;;;;-0.50;84.73;101165.14;1434799;91;21590;-90
2021/11/18 00:36:19;;;;;;;97.30;59.73;;;;;;;-0.44;84.70;101161.45;1432140;91;21324;-90
2021/11/18 00:38:46;;;;;;;88.87;58.28;;;;;;;-0.38;84.80;101154.71;1424772;91;21435;-89
2021/11/18 00:41:15;;;;;;;107.10;65.30;;;;;;;-0.31;84.75;101160.09;1434645;91;21508;-90
2021/11/18 00:43:44;;;;;;;91.50;58.40;;;;;;;-0.26;84.39;101157.70;1429417;91;21635;-89
2021/11/18 00:46:12;;;;;;;101.00;61.85;;;;;;;-0.27;84.32;101168.15;1432521;91;22564;-90
2021/11/18 00:48:40;;;;;;;109.35;61.53;;;;;;;-0.27;84.31;101157.28;1426376;91;22259;-90
2021/11/18 00:51:14;;;;;;;107.15;61.73;;;;;;;-0.17;84.30;101163.41;1433421;91;22431;-89
2021/11/18 00:53:47;;;;;;;114.03;64.87;;;;;;;-0.09;84.14;101158.76;1428538;91;21384;-89
2021/11/18 00:56:15;;;;;;;102.07;59.03;;;;;;;-0.05;83.94;101161.19;1423095;91;21399;-90
2021/11/18 00:58:42;;;;;;;101.87;61.13;;;;;;;-0.01;83.97;101167.95;1434532;90;21679;-91
2021/11/18 01:01:10;;;;;;;101.47;58.70;;;;;;;0.04;83.72;101165.63;1424991;90;21435;-90
2021/11/18 01:03:37;;;;;;;94.90;57.97;;;;;;;0.11;83.61;101163.16;1422576;91;22655;-90
2021/11/18 01:06:04;;;;;;;98.40;57.17;;;;;;;0.18;83.56;101162.86;1432605;91;22665;-90
2021/11/18 01:08:32;;;;;;;96.90;57.97;;;;;;;0.24;83.24;101163.05;1427553;91;22146;-90
2021/11/18 01:11:08;;;;;;;93.97;55.90;;;;;;;0.26;83.07;101162.55;1422990;91;22139;-90
2021/11/18 01:13:37;;;;;;;92.37;57.23;;;;;;;0.32;83.07;101163.59;1431294;91;21731;-91
2021/11/18 01:16:04;;;;;;;86.20;54.17;;;;;;;0.37;82.90;101162.91;1425044;91;22779;-91
2021/11/18 01:18:33;;;;;;;92.17;52.13;;;;;;;0.43;82.73;101159.21;1422992;91;21706;-91
2021/11/18 01:21:03;;;;;;;81.13;52.47;;;;;;;0.47;82.58;101159.95;1429481;91;21546;-91
2021/11/18 01:23:36;;;;;;;90.15;53.35;;;;;;;0.45;82.06;101160.00;1424871;91;22546;-90
2021/11/18 01:26:06;;;;;;;87.83;53.83;;;;;;;0.50;82.45;101162.42;1421476;91;21568;-90
2021/11/18 01:28:34;;;;;;;84.72;49.95;;;;;;;0.51;82.32;101157.12;1428307;91;22578;-90
2021/11/18 01:31:02;;;;;;;89.37;53.27;;;;;;;0.58;82.26;101161.64;1427719;91;21527;-89
2021/11/18 01:33:30;;;;;;;78.70;48.93;;;;;;;0.63;82.30;101163.14;1425407;91;21587;-88
2021/11/18 01:35:58;;;;;;;84.03;52.43;;;;;;;0.67;82.06;101157.33;1430132;91;21700;-89
2021/11/18 01:38:27;;;;;;;94.97;53.87;;;;;;;0.72;82.16;101163.63;1434521;90;21742;-90
2021/11/18 01:40:58;;;;;;;90.00;52.67;;;;;;;0.74;82.13;101167.86;1427431;91;22443;-90
2021/11/18 01:43:30;;;;;;;85.03;53.80;;;;;;;0.78;82.04;101165.53;1421679;91;21673;-91
2021/11/18 01:45:59;;;;;;;81.07;53.17;;;;;;;0.80;81.86;101166.29;1434650;91;22373;-90
2021/11/18 01:48:26;;;;;;;84.90;53.27;;;;;;;0.81;81.79;101158.88;1422413;91;22731;-89
2021/11/18 01:50:55;;;;;;;83.83;52.30;;;;;;;0.81;81.71;101157.58;1429360;90;23614;-90
2021/11/18 01:53:27;;;;;;;83.43;53.10;;;;;;;0.84;81.83;101164.42;1428234;91;21608;-89
2021/11/18 01:55:55;;;;;;;81.87;52.00;;;;;;;0.86;81.83;101166.48;1427001;91;22570;-89
2021/11/18 01:58:22;;;;;;;79.83;51.63;;;;;;;0.87;82.03;101170.34;1434412;91;22595;-90
2021/11/18 02:00:54;;;;;;;77.67;49.97;;;;;;;0.83;82.25;101176.58;1398033;91;22557;-90
2021/11/18 02:03:22;;;;;;;84.17;52.93;;;;;;;0.75;82.58;101173.48;1425779;91;21422;-89
2021/11/18 02:06:07;;;;;;;82.33;52.70;;;;;;;0.79;82.54;101173.73;1439700;91;21572;-89
2021/11/18 02:08:36;;;;;;;79.63;50.70;;;;;;;0.76;83.66;101174.33;1443698;90;21777;-90
2021/11/18 02:11:08;;;;;;;82.87;52.37;;;;;;;0.77;83.35;101174.24;1444002;89;21665;-90
2021/11/18 02:13:35;;;;;;;90.50;54.17;;;;;;;0.80;83.63;101174.57;1446198;90;22735;-91
2021/11/18 02:16:05;;;;;;;84.27;53.40;;;;;;;0.79;83.80;101178.10;1446797;90;23555;-91
2021/11/18 02:18:36;;;;;;;89.30;53.53;;;;;;;0.80;83.63;101179.32;1454247;90;22644;-90
2021/11/18 02:21:13;;;;;;;84.97;51.95;;;;;;;0.87;83.71;101176.02;1444965;89;21609;-90
2021/11/18 02:23:48;;;;;;;85.50;53.47;;;;;;;0.90;84.00;101174.11;1443387;90;21363;-90
2021/11/18 02:26:18;;;;;;;84.37;53.50;;;;;;;0.93;83.99;101173.59;1445083;90;21583;-90
2021/11/18 02:28:48;;;;;;;86.60;54.77;;;;;;;0.96;84.47;101174.30;1449498;90;23650;-91
2021/11/18 02:31:26;;;;;;;79.90;53.93;;;;;;;0.96;84.47;101178.67;1445159;90;21409;-90
2021/11/18 02:33:54;;;;;;;85.20;53.33;;;;;;;1.00;84.48;101177.61;1452007;89;21564;-90
2021/11/18 02:36:21;;;;;;;80.23;51.57;;;;;;;1.04;84.62;101171.36;1449026;89;21719;-91
2021/11/18 02:38:49;;;;;;;81.77;51.53;;;;;;;1.09;84.37;101160.24;1449849;88;21608;-92
2021/11/18 02:41:19;;;;;;;80.37;51.00;;;;;;;1.19;84.39;101170.66;1455031;90;21567;-90
2021/11/18 02:43:46;;;;;;;78.30;49.97;;;;;;;1.24;84.23;101164.78;1453223;90;22823;-91
2021/11/18 02:46:14;;;;;;;82.10;54.10;;;;;;;1.30;84.14;101165.80;1447425;90;21578;-91
2021/11/18 02:48:42;;;;;;;69.43;47.93;;;;;;;1.35;84.04;101163.84;1457293;90;21636;-89
2021/11/18 02:51:14;;;;;;;72.17;48.00;;;;;;;1.40;83.79;101165.37;1451613;88;21654;-89
2021/11/18 02:53:42;;;;;;;73.03;49.83;;;;;;;1.42;83.64;101171.38;1445819;90;21592;-89
2021/11/18 02:56:10;;;;;;;77.83;50.47;;;;;;;1.43;83.81;101166.07;1453989;90;21599;-90
2021/11/18 02:58:38;;;;;;;74.07;47.10;;;;;;;1.49;83.49;101168.86;1449790;90;21679;-89
2021/11/18 03:01:17;;;;;;;82.07;51.00;;;;;;;1.49;83.34;101168.39;1450430;88;22021;-90
2021/11/18 03:03:45;;;;;;;74.83;47.67;;;;;;;1.54;83.29;101169.50;1448703;90;21545;-90
2021/11/18 03:06:13;;;;;;;70.43;48.97;;;;;;;1.60;83.33;101162.68;1425748;91;21680;-89
2021/11/18 03:08:42;;;;;;;80.23;51.80;;;;;;;1.61;83.15;101164.36;1423356;90;21812;-91
2021/11/18 03:11:12;;;;;;;71.50;48.27;;;;;;;1.61;83.04;101171.34;1420230;92;21622;-91
2021/11/18 03:13:39;;;;;;;72.73;49.53;;;;;;;1.61;83.33;101175.27;1412948;92;21746;-90
2021/11/18 03:16:09;;;;;;;68.57;46.13;;;;;;;1.64;83.28;101174.69;1423610;92;21648;-90
2021/11/18 03:18:38;;;;;;;77.87;52.70;;;;;;;1.63;83.43;101179.50;1416902;90;21920;-90
2021/11/18 03:21:10;;;;;;;82.20;53.13;;;;;;;1.65;83.41;101178.98;1423905;91;22826;-90
2021/11/18 03:23:38;;;;;;;78.33;52.20;;;;;;;1.69;83.55;101174.45;1424551;91;21749;-90
2021/11/18 03:26:07;;;;;;;72.73;48.57;;;;;;;1.70;83.22;101182.22;1428090;90;21653;-89
2021/11/18 03:28:34;;;;;;;80.03;51.43;;;;;;;1.74;83.29;101180.30;1421986;91;21520;-89
2021/11/18 03:31:09;;;;;;;73.03;50.07;;;;;;;1.77;83.26;101178.39;1433090;90;21689;-89
2021/11/18 03:33:41;;;;;;;77.37;48.83;;;;;;;1.82;83.21;101179.95;1425365;91;22551;-91
2021/11/18 03:36:10;;;;;;;72.53;49.30;;;;;;;1.83;83.10;101177.72;1408005;91;22103;-90
2021/11/18 03:38:38;;;;;;;81.67;55.93;;;;;;;1.88;83.17;101177.05;1425906;91;22074;-91
2021/11/18 03:41:07;;;;;;;78.40;50.17;;;;;;;1.91;83.04;101179.50;1423162;91;21684;-90
2021/11/18 03:43:39;;;;;;;83.23;50.50;;;;;;;1.94;83.18;101176.28;1426324;91;21437;-90
2021/11/18 03:46:08;;;;;;;75.07;50.33;;;;;;;1.97;83.06;101177.91;1408126;91;21776;-89
2021/11/18 03:48:38;;;;;;;82.83;55.37;;;;;;;1.99;82.97;101178.68;1431394;91;22512;-89
2021/11/18 03:51:09;;;;;;;78.10;52.57;;;;;;;1.97;82.87;101176.13;1426832;91;21609;-89
2021/11/18 03:53:38;;;;;;;81.40;53.07;;;;;;;1.98;82.93;101175.66;1422902;91;21668;-90
2021/11/18 03:56:11;;;;;;;76.07;49.57;;;;;;;2.02;83.07;101175.92;1423142;91;21602;-91
2021/11/18 03:58:39;;;;;;;79.90;52.00;;;;;;;2.00;82.77;101179.89;1425283;91;22473;-90
2021/11/18 04:01:07;;;;;;;75.27;51.37;;;;;;;2.03;82.84;101182.82;1422143;91;21701;-91
2021/11/18 04:03:36;;;;;;;82.17;55.03;;;;;;;2.05;82.90;101186.22;1424151;91;22066;-90
2021/11/18 04:06:05;;;;;;;77.43;52.13;;;;;;;2.09;83.19;101190.36;1416730;91;21672;-90
2021/11/18 04:08:32;;;;;;;88.30;59.30;;;;;;;2.11;83.00;101191.59;1426766;91;21625;-91
2021/11/18 04:10:59;;;;;;;95.23;58.37;;;;;;;2.10;83.13;101190.76;1422143;91;21648;-90
2021/11/18 04:13:28;;;;;;;122.00;66.87;;;;;;;2.11;83.02;101189.83;1430563;91;21702;-89
2021/11/18 04:15:56;;;;;;;130.50;72.03;;;;;;;2.15;83.08;101179.60;1420864;91;21719;-90
2021/11/18 04:18:24;;;;;;;117.37;63.67;;;;;;;2.19;83.14;101182.47;1441400;90;21766;-89
2021/11/18 04:20:53;;;;;;;131.77;69.47;;;;;;;2.23;83.09;101180.55;1438585;90;22716;-88
2021/11/18 04:23:25;;;;;;;142.80;73.23;;;;;;;2.22;83.22;101186.23;1445827;90;22671;-90
2021/11/18 04:25:58;;;;;;;163.43;75.70;;;;;;;2.23;83.07;101187.91;1441762;90;22689;-87
2021/11/18 04:28:25;;;;;;;156.27;74.37;;;;;;;2.26;83.17;101186.45;1429211;90;21904;-88
2021/11/18 04:30:58;;;;;;;106.53;58.67;;;;;;;2.25;83.07;101193.91;1439340;90;21971;-89
2021/11/18 04:33:28;;;;;;;84.17;54.23;;;;;;;2.25;83.29;101194.38;1442040;90;22532;-89
2021/11/18 04:35:56;;;;;;;92.50;57.50;;;;;;;2.26;83.35;101197.37;1444725;90;21943;-88
2021/11/18 04:38:25;;;;;;;84.67;55.97;;;;;;;2.27;83.46;101195.12;1443131;90;21593;-90
2021/11/18 04:40:53;;;;;;;100.67;58.93;;;;;;;2.28;83.56;101201.23;1435957;90;22703;-89
2021/11/18 04:43:22;;;;;;;110.43;62.77;;;;;;;2.28;83.49;101202.53;1438011;89;22543;-89
2021/11/18 04:45:50;;;;;;;116.57;68.33;;;;;;;2.26;83.42;101202.59;1448492;89;21696;-89
2021/11/18 04:48:18;;;;;;;111.03;63.83;;;;;;;2.32;83.71;101207.98;1446210;90;21781;-89
2021/11/18 04:50:45;;;;;;;112.50;63.03;;;;;;;2.37;84.19;101211.22;1428948;90;21830;-89
2021/11/18 04:53:13;;;;;;;105.67;60.87;;;;;;;2.31;83.76;101214.13;1432258;90;22051;-88
2021/11/18 04:55:40;;;;;;;109.87;63.77;;;;;;;2.23;84.50;101215.80;1441453;90;21861;-89
2021/11/18 04:58:07;;;;;;;106.17;58.83;;;;;;;2.15;84.55;101214.86;1435005;90;22680;-88
2021/11/18 05:00:46;;;;;;;96.90;58.27;;;;;;;2.13;84.54;101223.25;1434985;90;23611;-88
2021/11/18 05:03:15;;;;;;;88.53;56.83;;;;;;;2.13;84.54;101223.25;1428808;90;21866;-88
2021/11/18 05:05:43;;;;;;;89.30;52.40;;;;;;;2.18;84.91;101223.85;1439022;90;21646;-88
2021/11/18 05:08:11;;;;;;;84.97;53.90;;;;;;;2.24;85.36;101227.50;1443679;90;22267;-88
2021/11/18 05:10:43;;;;;;;78.13;51.30;;;;;;;2.34;85.13;101214.82;1441598;90;21777;-91
2021/11/18 05:13:11;;;;;;;84.77;57.57;;;;;;;2.34;85.13;101214.82;1438968;90;22386;-90
2021/11/18 05:15:43;;;;;;;86.07;54.80;;;;;;;2.51;85.22;101220.52;1441273;90;21668;-89
2021/11/18 05:18:12;;;;;;;87.10;56.97;;;;;;;2.58;85.05;101225.81;1439830;90;21937;-89
2021/11/18 05:20:41;;;;;;;100.30;63.00;;;;;;;2.58;85.05;101225.81;1436732;91;21611;-89
2021/11/18 05:23:10;;;;;;;114.17;71.40;;;;;;;2.62;84.78;101226.06;1428015;91;21758;-90
2021/11/18 05:25:39;;;;;;;109.27;67.53;;;;;;;2.63;84.66;101230.35;1426754;91;21729;-89
2021/11/18 05:28:06;;;;;;;107.03;68.70;;;;;;;2.65;84.54;101238.97;1427253;91;21817;-88
2021/11/18 05:30:34;;;;;;;110.07;70.90;;;;;;;2.66;84.50;101241.12;1438026;91;21884;-90
2021/11/18 05:33:07;;;;;;;118.63;76.67;;;;;;;2.67;84.39;101233.18;1422171;90;21615;-90
2021/11/18 05:35:35;;;;;;;133.97;84.83;;;;;;;2.68;84.47;101236.67;1429523;90;22653;-90
2021/11/18 05:38:03;;;;;;;128.87;79.93;;;;;;;2.67;84.64;101238.88;1430668;91;21935;-89
2021/11/18 05:40:32;;;;;;;118.30;74.57;;;;;;;2.68;84.52;101248.44;1428159;91;21765;-90
2021/11/18 05:43:00;;;;;;;106.37;63.33;;;;;;;2.70;84.68;101251.79;1435355;91;21706;-89
2021/11/18 05:45:30;;;;;;;97.33;63.10;;;;;;;2.71;84.63;101251.73;1432829;90;21763;-89
2021/11/18 05:47:58;;;;;;;112.17;73.67;;;;;;;2.73;84.49;101249.02;1427010;91;22757;-91
2021/11/18 05:50:26;;;;;;;105.70;67.63;;;;;;;2.78;84.60;101256.64;1425194;90;21482;-91
2021/11/18 05:52:54;;;;;;;86.53;58.80;;;;;;;2.80;84.54;101254.80;1426726;90;21934;-91
2021/11/18 05:55:27;;;;;;;91.73;57.77;;;;;;;2.81;84.67;101251.26;1431010;90;22964;-90
2021/11/18 05:57:54;;;;;;;84.23;56.30;;;;;;;2.83;84.60;101247.64;1429119;88;22975;-91
2021/11/18 06:00:26;;;;;;;96.33;62.60;;;;;;;2.84;84.57;101246.71;1423050;91;21805;-89
2021/11/18 06:02:54;;;;;;;95.73;62.80;;;;;;;2.87;84.82;101250.95;1420208;91;22746;-91
2021/11/18 06:05:24;;;;;;;98.83;62.77;;;;;;;2.92;84.74;101250.25;1423190;92;21786;-90
2021/11/18 06:07:54;;;;;;;104.50;62.67;;;;;;;2.92;84.74;101250.25;1421433;91;21735;-91
2021/11/18 06:10:24;;;;;;;100.07;63.73;;;;;;;2.92;84.64;101251.09;1411792;91;21457;-90
2021/11/18 06:12:51;;;;;;;90.17;58.93;;;;;;;2.92;84.67;101258.94;1411677;91;21979;-89
2021/11/18 06:15:19;;;;;;;89.03;58.97;;;;;;;2.93;84.90;101263.27;1405888;92;22035;-89
2021/11/18 06:17:48;;;;;;;78.40;54.10;;;;;;;2.99;84.79;101268.61;1409053;91;21753;-88
2021/11/18 06:20:16;;;;;;;77.90;54.30;;;;;;;2.97;84.78;101267.87;1413226;92;21886;-91
2021/11/18 06:22:45;;;;;;;84.53;55.53;;;;;;;3.03;84.74;101275.87;1393342;92;21838;-89
2021/11/18 06:25:17;;;;;;;87.63;58.73;;;;;;;3.03;84.74;101275.87;1419363;91;21685;-88
2021/11/18 06:27:47;;;;;;;103.10;66.60;;;;;;;3.04;85.19;101276.23;1407688;92;21877;-88
2021/11/18 06:30:28;;;;;;;113.87;74.07;;;;;;;3.05;84.78;101278.79;1414466;91;21937;-88
2021/11/18 06:32:56;;;;;;;127.20;82.90;;;;;;;3.06;85.11;101290.94;1410385;91;22131;-88
2021/11/18 06:35:25;;;;;;;118.27;73.07;;;;;;;3.09;84.78;101299.92;1407959;92;21996;-88
2021/11/18 06:37:54;;;;;;;96.43;67.80;;;;;;;3.12;85.37;101308.08;1408351;91;21851;-88
2021/11/18 06:40:21;;;;;;;103.13;65.13;;;;;;;3.04;85.54;101303.23;1409720;92;21873;-89
2021/11/18 06:42:48;;;;;;;104.03;65.93;;;;;;;3.06;85.39;101299.25;1418962;92;21858;-89
2021/11/18 06:45:21;;;;;;;95.97;62.40;;;;;;;3.06;85.39;101299.25;1410423;91;21914;-89
2021/11/18 06:47:48;;;;;;;95.83;59.10;;;;;;;3.00;85.64;101305.63;1408214;91;22032;-88
2021/11/18 06:50:17;;;;;;;91.67;58.67;;;;;;;2.93;85.94;101309.46;1410374;92;21932;-89
2021/11/18 06:52:44;;;;;;;91.70;62.60;;;;;;;2.89;86.48;101313.16;1409645;92;21817;-89
2021/11/18 06:55:14;;;;;;;93.10;59.60;;;;;;;2.87;87.00;101313.70;1408159;92;22809;-89
2021/11/18 06:57:41;;;;;;;83.03;57.23;;;;;;;2.83;87.93;101314.31;1406124;92;22152;-89
2021/11/18 07:00:12;;;;;;;93.40;59.70;;;;;;;2.81;88.39;101323.16;1426519;91;21901;-89
2021/11/18 07:02:39;;;;;;;88.10;57.45;;;;;;;2.81;88.39;101323.16;1420901;91;22367;-89
2021/11/18 07:05:08;;;;;;;85.47;55.63;;;;;;;2.82;88.90;101318.30;1433088;91;21331;-89
2021/11/18 07:07:35;;;;;;;84.73;54.17;;;;;;;2.82;88.90;101318.30;1436751;91;22112;-89
2021/11/18 07:10:06;;;;;;;80.73;53.67;;;;;;;2.88;88.54;101323.25;1432166;91;21859;-88
2021/11/18 07:12:33;;;;;;;77.17;52.27;;;;;;;2.89;88.25;101318.39;1423965;91;22979;-88
2021/11/18 07:15:01;;;;;;;81.40;53.73;;;;;;;2.95;88.26;101315.47;1431190;90;21546;-88
2021/11/18 07:17:29;;;;;;;86.07;54.17;;;;;;;2.97;88.45;101320.17;1428359;91;21876;-88
2021/11/18 07:19:56;;;;;;;71.30;49.50;;;;;;;3.04;88.16;101329.38;1423409;91;21928;-88
2021/11/18 07:22:25;;;;;;;91.37;55.37;;;;;;;3.04;88.16;101329.38;1436081;91;21805;-89
2021/11/18 07:24:53;;;;;;;82.13;52.67;;;;;;;3.08;88.17;101330.94;1433870;91;21892;-88
2021/11/18 07:27:20;;;;;;;99.80;56.83;;;;;;;3.13;87.98;101332.84;1432325;90;22263;-88
2021/11/18 07:29:47;;;;;;;81.50;52.47;;;;;;;3.13;87.98;101326.86;1438802;91;23061;-89
2021/11/18 07:32:15;;;;;;;72.73;50.87;;;;;;;3.20;88.17;101321.63;1434154;91;22256;-90
2021/11/18 07:34:43;;;;;;;85.53;54.47;;;;;;;3.29;88.17;101326.84;1433425;90;22147;-91
2021/11/18 07:37:10;;;;;;;74.10;50.60;;;;;;;3.29;88.17;101326.84;1435814;91;22066;-89
2021/11/18 07:39:37;;;;;;;83.23;53.03;;;;;;;3.24;88.56;101331.46;1438449;90;22137;-89
2021/11/18 07:42:04;;;;;;;74.07;50.47;;;;;;;3.17;89.37;101336.17;1438170;90;22144;-86
2021/11/18 07:44:32;;;;;;;89.60;53.53;;;;;;;3.06;93.05;101325.41;1425146;91;22175;-87
2021/11/18 07:46:59;;;;;;;79.03;52.43;;;;;;;3.09;97.48;101331.31;1433194;91;22169;-90
2021/11/18 07:49:27;;;;;;;80.43;52.63;;;;;;;3.12;95.84;101349.47;1433681;90;22204;-87
2021/11/18 07:51:55;;;;;;;74.30;49.00;;;;;;;3.11;95.10;101354.33;1429307;90;22203;-86
2021/11/18 07:54:24;;;;;;;73.80;50.00;;;;;;;3.01;91.65;101353.08;1434416;91;24334;-86
2021/11/18 07:56:53;;;;;;;74.33;47.30;;;;;;;3.01;91.65;101353.08;1438771;90;23253;-87
2021/11/18 07:59:22;;;;;;;78.67;49.97;;;;;;;2.99;92.05;101348.38;1426173;90;22285;-88
2021/11/18 08:01:50;;;;;;;79.97;50.33;;;;;;;2.93;91.31;101355.22;1421209;90;22189;-89
2021/11/18 08:04:17;;;;;;;71.03;49.70;;;;;;;2.93;91.31;101355.22;1436428;90;22830;-88
2021/11/18 08:06:45;;;;;;;70.80;45.37;;;;;;;2.93;91.20;101355.22;1422231;91;22152;-90
2021/11/18 08:09:12;;;;;;;72.17;44.43;;;;;;;2.77;90.96;101343.85;1437897;91;22111;-90
2021/11/18 08:11:51;;;;;;;78.47;51.20;;;;;;;2.78;90.60;101344.22;1428686;91;21904;-89
2021/11/18 08:14:19;;;;;;;65.53;41.63;;;;;;;2.71;91.79;101358.06;1437500;90;22191;-90
2021/11/18 08:16:47;;;;;;;81.40;50.13;;;;;;;2.71;91.79;101358.06;1424885;91;22112;-89
2021/11/18 08:19:15;;;;;;;78.63;51.20;;;;;;;2.69;90.93;101346.36;1431979;90;22921;-89
2021/11/18 08:21:44;;;;;;;73.67;49.17;;;;;;;2.81;91.01;101351.91;1433380;91;22202;-89
2021/11/18 08:24:14;;;;;;;77.27;46.63;;;;;;;2.96;91.26;101354.23;1432014;91;22123;-89
2021/11/18 08:26:44;;;;;;;74.13;46.47;;;;;;;2.96;91.26;101354.23;1432954;91;22167;-89
2021/11/18 08:29:15;;;;;;;74.57;43.63;;;;;;;2.94;90.57;101364.31;1416847;91;21881;-89
2021/11/18 08:31:45;;;;;;;74.17;45.50;;;;;;;2.99;90.64;101375.00;1417899;91;22062;-90
2021/11/18 08:34:12;;;;;;;107.00;49.30;;;;;;;2.99;90.38;101373.22;1433889;90;22358;-90
2021/11/18 08:36:40;;;;;;;101.50;48.80;;;;;;;2.94;90.28;101368.70;1435277;91;22051;-89
2021/11/18 08:39:10;;;;;;;87.40;43.50;;;;;;;2.91;90.49;101363.63;1420440;91;23180;-89
2021/11/18 08:41:38;;;;;;;76.37;43.43;;;;;;;2.99;90.43;101375.00;1430604;90;22226;-90
2021/11/18 08:44:05;;;;;;;84.47;47.67;;;;;;;3.05;90.28;101377.30;1431381;91;22165;-89
2021/11/18 08:46:33;;;;;;;88.77;48.30;;;;;;;3.05;90.28;101377.30;1435911;91;22147;-89
2021/11/18 08:49:04;;;;;;;80.73;49.20;;;;;;;3.00;90.45;101368.40;1418300;91;22996;-91
2021/11/18 08:51:35;;;;;;;89.57;47.90;;;;;;;3.09;90.08;101381.02;1419010;91;22159;-90
2021/11/18 08:54:08;;;;;;;83.00;46.43;;;;;;;3.14;89.95;101373.79;1431909;90;21908;-89
2021/11/18 08:56:36;;;;;;;79.90;46.70;;;;;;;3.19;89.96;101375.31;1439572;91;21899;-90
2021/11/18 08:59:05;;;;;;;82.40;46.17;;;;;;;3.19;89.96;101375.31;1438016;91;22122;-88
2021/11/18 09:01:43;;;;;;;93.27;50.03;;;;;;;3.29;89.99;101373.47;1431471;91;22285;-87
2021/11/18 09:04:15;;;;;;;95.93;53.57;;;;;;;3.39;90.02;101379.08;1431651;91;23095;-87
2021/11/18 09:06:44;;;;;;;90.27;54.03;;;;;;;3.50;90.00;101379.37;1432582;91;22158;-86
2021/11/18 09:09:15;;;;;;;81.33;48.90;;;;;;;3.63;90.05;101373.53;1432596;90;22287;-87
2021/11/18 09:11:44;;;;;;;84.17;50.73;;;;;;;3.75;89.77;101378.11;1434477;91;22197;-87
2021/11/18 09:14:11;;;;;;;78.53;49.90;;;;;;;3.88;89.76;101364.73;1432152;91;21353;-87
2021/11/18 09:16:42;;;;;;;83.87;49.97;;;;;;;3.94;89.39;101370.98;1433131;90;22163;-87
2021/11/18 09:19:17;;;;;;;83.97;49.38;;;;;;;4.02;88.71;101364.00;1415914;91;24220;-87
2021/11/18 09:21:46;;;;;;;86.63;51.87;;;;;;;4.02;88.71;101364.00;1427993;91;22410;-87
2021/11/18 09:24:22;;;;;;;80.93;48.47;;;;;;;4.04;88.44;101359.07;1433147;91;22102;-87
2021/11/18 09:26:57;;;;;;;79.80;48.73;;;;;;;4.09;88.25;101359.30;1430551;90;23302;-92
2021/11/18 09:29:26;;;;;;;87.37;53.30;;;;;;;4.12;88.28;101359.97;1438561;91;22115;-92
2021/11/18 09:31:57;;;;;;;79.00;50.40;;;;;;;4.15;88.13;101364.20;1431565;90;22235;-92
2021/11/18 09:34:26;;;;;;;82.17;48.40;;;;;;;4.22;88.34;101359.00;1431693;90;22159;-88
2021/11/18 09:36:55;;;;;;;80.43;51.30;;;;;;;4.27;88.18;101358.28;1427481;91;21390;-87
2021/11/18 09:39:24;;;;;;;81.47;51.77;;;;;;;4.34;88.06;101353.55;1429150;91;23032;-87
2021/11/18 09:42:16;;;;;;;84.13;51.97;;;;;;;4.40;87.90;101361.94;1428968;90;22166;-87
2021/11/18 09:45:20;;;;;;;78.60;50.10;;;;;;;4.44;87.74;101354.27;1439583;90;22159;-87
2021/11/18 09:48:42;;;;;;;84.13;52.30;;;;;;;4.49;87.58;101356.84;1435934;91;22278;-87
2021/11/18 09:51:23;;;;;;;88.20;55.70;;;;;;;4.53;87.56;101356.84;1430280;91;21382;-88
2021/11/18 09:54:12;;;;;;;;;;;;;;;4.54;87.22;101363.77;1435673;90;22117;-87
2021/11/18 09:57:03;;;;;;;78.90;51.17;;;;;;;4.58;87.35;101369.70;1433977;90;20302;-87
2021/11/18 10:00:05;;;;;;;78.65;50.75;;;;;;;4.65;87.36;101370.56;1434731;90;23076;-89
2021/11/18 10:02:49;;;;;;;81.57;53.87;;;;;;;4.69;86.82;101359.42;1419876;89;21456;-89
2021/11/18 10:05:33;;;;;;;81.37;51.53;;;;;;;4.69;86.82;101359.42;1415586;92;21582;-89
2021/11/18 10:08:12;;;;;;;80.63;57.00;;;;;;;4.71;86.56;101370.69;1400139;92;22381;-89
2021/11/18 10:11:00;;;;;;;77.70;51.53;;;;;;;4.65;86.46;101365.79;1403824;92;22484;-89
2021/11/18 10:14:00;;;;;;;79.23;51.87;;;;;;;4.65;86.46;101365.79;1411843;93;21605;-89
2021/11/18 10:16:35;;;;;;;76.33;47.83;;;;;;;4.62;87.72;101374.67;1403508;93;21457;-89
2021/11/18 10:19:07;;;;;;;78.17;51.87;;;;;;;4.62;87.72;101374.67;1408818;93;21448;-88
2021/11/18 10:21:42;;;;;;;76.57;48.80;;;;;;;4.61;87.65;101358.94;1395798;92;22316;-89
2021/11/18 10:24:20;;;;;;;72.13;49.33;;;;;;;4.62;87.54;101358.94;1413878;93;21405;-89
2021/11/18 10:26:59;;;;;;;75.17;48.90;;;;;;;4.58;87.50;101354.81;1410806;92;22179;-89
2021/11/18 10:29:32;;;;;;;85.00;51.63;;;;;;;4.62;87.06;101358.09;1408805;93;21309;-89
2021/11/18 10:32:11;;;;;;;76.33;48.47;;;;;;;4.62;87.06;101358.09;1438113;90;21436;-89
2021/11/18 10:34:52;;;;;;;77.57;50.80;;;;;;;4.60;88.18;101366.03;1410286;91;21435;-88
2021/11/18 10:37:37;;;;;;;81.87;52.93;;;;;;;4.58;87.96;101372.33;1402212;92;21439;-89
2021/11/18 10:40:28;;;;;;;80.37;49.23;;;;;;;4.56;88.16;101370.24;1416516;92;21479;-89
2021/11/18 10:43:15;;;;;;;77.67;50.35;;;;;;;4.50;89.10;101361.78;1412468;91;21665;-89
2021/11/18 10:45:51;;;;;;;77.57;49.70;;;;;;;4.56;88.74;101362.40;1418243;92;21441;-89
2021/11/18 10:48:26;;;;;;;79.73;48.43;;;;;;;4.63;88.81;101362.40;1413394;91;21927;-89
2021/11/18 10:51:11;;;;;;;93.40;54.23;;;;;;;4.72;89.24;101363.22;1411484;91;22300;-89
2021/11/18 10:53:52;;;;;;;84.87;52.93;;;;;;;4.91;89.42;101357.74;1419010;92;21442;-89
2021/11/18 10:56:28;;;;;;;86.80;51.03;;;;;;;5.13;89.50;101347.70;1408648;91;21561;-89
2021/11/18 10:59:22;;;;;;;80.43;50.23;;;;;;;5.24;88.63;101352.80;1415280;92;22313;-89
2021/11/18 11:01:52;;;;;;;86.00;50.87;;;;;;;5.27;87.85;101349.52;1411661;91;21515;-89
2021/11/18 11:04:45;;;;;;;82.35;50.30;;;;;;;5.32;87.87;101345.28;1422746;90;22284;-89
2021/11/18 11:07:14;;;;;;;83.77;53.10;;;;;;;5.45;88.04;101351.98;1428117;90;22062;-89
2021/11/18 11:09:48;;;;;;;90.83;51.10;;;;;;;5.56;87.93;101352.18;1433004;91;21383;-89
2021/11/18 11:12:36;;;;;;;82.47;49.83;;;;;;;5.61;87.49;101340.46;1436947;90;21611;-89
2021/11/18 11:15:23;;;;;;;87.47;49.80;;;;;;;5.66;86.81;101334.91;1429433;90;21546;-89
2021/11/18 11:18:24;;;;;;;82.20;52.57;;;;;;;5.67;86.69;101335.30;1434393;91;22535;-89
2021/11/18 11:21:24;;;;;;;98.27;58.60;;;;;;;5.71;86.47;101338.11;1428343;91;21405;-86
2021/11/18 11:24:32;;;;;;;99.53;56.97;;;;;;;5.74;86.28;101339.23;1441069;91;21397;-87
2021/11/18 11:27:45;;;;;;;102.53;62.37;;;;;;;5.74;86.06;101341.86;1427126;91;21625;-88
2021/11/18 11:30:38;;;;;;;100.47;59.77;;;;;;;5.71;85.77;101340.73;1429204;91;21531;-88
2021/11/18 11:33:42;;;;;;;88.77;55.80;;;;;;;5.83;86.54;101342.59;1432311;90;21648;-88
2021/11/18 11:36:33;;;;;;;96.07;57.83;;;;;;;5.96;86.24;101352.41;1428287;91;22476;-88
2021/11/18 11:39:08;;;;;;;95.97;57.48;;;;;;;5.94;85.19;101355.59;1439623;90;21493;-88